createdAt,value
2018-06-13T00:01:24.739Z,19.45
2018-06-13T00:03:58.199Z,19.10
2018-06-13T00:06:28.628Z,19.67
2018-06-13T00:08:59.029Z,19.89
2018-06-13T00:11:29.401Z,20.19
2018-06-13T00:14:02.609Z,20.07
2018-06-13T00:16:33.029Z,20.28
2018-06-13T00:19:03.405Z,20.41
2018-06-13T00:21:33.722Z,20.43
2018-06-13T00:24:04.606Z,20.12
2018-06-13T00:26:35.073Z,20.41
2018-06-13T00:29:05.379Z,20.11
2018-06-13T00:31:35.733Z,20.28
2018-06-13T00:34:09.126Z,20.43
2018-06-13T00:36:39.498Z,20.33
2018-06-13T00:39:09.927Z,20.41
2018-06-13T00:41:40.293Z,20.11
2018-06-13T00:44:10.587Z,19.49
2018-06-13T00:46:40.906Z,19.32
2018-06-13T00:49:11.357Z,19.78
2018-06-13T00:51:41.748Z,20.21
2018-06-13T00:54:18.640Z,20.38
2018-06-13T00:56:49.007Z,20.11
2018-06-13T00:59:19.371Z,19.91
2018-06-13T01:01:49.741Z,19.71
2018-06-13T01:04:20.174Z,19.74
2018-06-13T01:06:50.332Z,19.81
2018-06-13T01:09:20.610Z,20.00
2018-06-13T01:11:51.081Z,19.88
2018-06-13T01:14:25.257Z,19.69
2018-06-13T01:16:55.534Z,20.02
2018-06-13T01:19:25.993Z,20.10
2018-06-13T01:21:56.518Z,20.12
2018-06-13T01:24:29.916Z,20.18
2018-06-13T01:27:00.134Z,19.69
2018-06-13T01:29:30.508Z,19.49
2018-06-13T01:32:05.490Z,19.53
2018-06-13T01:34:35.956Z,20.05
2018-06-13T01:37:06.022Z,20.20
2018-06-13T01:39:36.593Z,20.13
2018-06-13T01:42:06.870Z,20.20
2018-06-13T01:44:37.320Z,19.50
2018-06-13T01:47:07.672Z,19.32
2018-06-13T01:49:38.060Z,19.60
2018-06-13T01:52:08.136Z,19.96
2018-06-13T01:54:38.385Z,20.12
2018-06-13T01:57:08.705Z,20.33
2018-06-13T01:59:39.146Z,19.94
2018-06-13T02:02:10.557Z,19.91
2018-06-13T02:04:41.109Z,19.73
2018-06-13T02:07:11.320Z,19.85
2018-06-13T02:09:41.628Z,19.88
2018-06-13T02:12:15.178Z,19.78
2018-06-13T02:14:45.492Z,19.96
2018-06-13T02:17:15.818Z,20.01
2018-06-13T02:19:46.251Z,19.89
2018-06-13T02:22:19.815Z,20.14
2018-06-13T02:24:50.240Z,20.09
2018-06-13T02:27:20.647Z,19.85
2018-06-13T02:29:51.045Z,19.75
2018-06-13T02:32:21.351Z,19.88
2018-06-13T02:34:51.727Z,19.93
2018-06-13T02:37:22.141Z,20.10
2018-06-13T02:39:52.484Z,19.70
2018-06-13T02:42:22.954Z,19.36
2018-06-13T02:44:53.190Z,19.37
2018-06-13T02:47:23.609Z,19.77
2018-06-13T02:49:53.936Z,20.07
2018-06-13T02:52:27.598Z,19.77
2018-06-13T02:54:58.045Z,19.82
2018-06-13T02:57:28.337Z,19.58
2018-06-13T02:59:58.639Z,19.83
2018-06-13T03:02:30.155Z,20.11
2018-06-13T03:05:00.605Z,20.16
2018-06-13T03:07:31.044Z,20.12
2018-06-13T03:10:01.473Z,19.97
2018-06-13T03:12:35.837Z,20.00
2018-06-13T03:15:06.198Z,20.19
2018-06-13T03:17:36.630Z,20.12
2018-06-13T03:20:07.009Z,20.27
2018-06-13T03:22:37.402Z,20.12
2018-06-13T03:25:08.060Z,20.22
2018-06-13T03:27:38.423Z,20.16
2018-06-13T03:30:09.218Z,20.27
2018-06-13T03:32:39.650Z,20.26
2018-06-13T03:35:10.150Z,19.86
2018-06-13T03:37:40.544Z,19.89
2018-06-13T03:40:10.972Z,20.02
2018-06-13T03:42:44.384Z,20.31
2018-06-13T03:45:15.143Z,20.27
2018-06-13T03:47:45.589Z,20.57
2018-06-13T03:50:15.945Z,20.55
2018-06-13T03:52:51.145Z,20.76
2018-06-13T03:55:22.241Z,20.64
2018-06-13T03:57:53.261Z,20.88
2018-06-13T04:00:23.807Z,21.05
2018-06-13T04:02:57.460Z,21.04
2018-06-13T04:05:27.641Z,21.01
2018-06-13T04:07:58.052Z,21.25
2018-06-13T04:10:28.517Z,21.32
2018-06-13T04:12:59.668Z,21.15
2018-06-13T04:15:31.236Z,21.18
2018-06-13T04:18:01.739Z,21.17
2018-06-13T04:20:32.150Z,21.26
2018-06-13T04:23:03.250Z,21.43
2018-06-13T04:25:33.836Z,21.50
2018-06-13T04:28:04.138Z,21.64
2018-06-13T04:30:34.475Z,21.83
2018-06-13T04:33:06.651Z,21.75
2018-06-13T04:35:37.275Z,21.76
2018-06-13T04:38:07.654Z,21.75
2018-06-13T04:40:38.394Z,21.87
2018-06-13T04:43:14.185Z,21.90
2018-06-13T04:45:44.561Z,22.11
2018-06-13T04:48:14.914Z,22.36
2018-06-13T04:50:45.284Z,22.35
2018-06-13T04:53:15.842Z,22.36
2018-06-13T04:55:46.684Z,22.49
2018-06-13T04:58:17.208Z,22.46
2018-06-13T05:00:47.722Z,22.73
2018-06-13T05:03:18.814Z,23.04
2018-06-13T05:05:49.233Z,23.02
2018-06-13T05:08:19.673Z,23.14
2018-06-13T05:10:52.732Z,22.88
2018-06-13T05:13:22.905Z,22.89
2018-06-13T05:15:53.305Z,23.07
2018-06-13T05:18:23.665Z,23.36
2018-06-13T05:21:15.458Z,23.78
2018-06-13T05:23:46.184Z,24.18
2018-06-13T05:26:17.305Z,24.59
2018-06-13T05:28:48.019Z,24.53
2018-06-13T05:31:21.917Z,24.72
2018-06-13T05:33:52.339Z,24.82
2018-06-13T05:36:22.698Z,25.15
2018-06-13T05:38:53.267Z,25.12
2018-06-13T05:41:25.001Z,24.99
2018-06-13T05:43:55.537Z,25.40
2018-06-13T05:46:25.827Z,25.77
2018-06-13T05:48:56.384Z,25.55
2018-06-13T05:51:26.763Z,26.01
2018-06-13T05:53:57.306Z,25.45
2018-06-13T05:56:27.685Z,25.87
2018-06-13T05:59:01.356Z,25.89
2018-06-13T06:01:41.026Z,26.09
2018-06-13T06:04:16.815Z,26.15
2018-06-13T06:06:54.319Z,25.92
2018-06-13T06:09:25.802Z,26.46
2018-06-13T06:11:59.422Z,26.89
2018-06-13T06:14:29.901Z,26.66
2018-06-13T06:17:00.573Z,27.19
2018-06-13T06:19:31.988Z,27.09
2018-06-13T06:22:03.038Z,27.46
2018-06-13T06:24:34.490Z,27.63
2018-06-13T06:27:04.950Z,27.51
2018-06-13T06:29:35.229Z,27.76
2018-06-13T06:32:05.570Z,27.43
2018-06-13T06:34:36.625Z,27.50
2018-06-13T06:37:07.943Z,27.09
2018-06-13T06:39:38.418Z,27.64
2018-06-13T06:42:12.180Z,27.38
2018-06-13T06:44:49.415Z,28.05
2018-06-13T06:47:20.812Z,27.11
2018-06-13T06:49:51.692Z,27.98
2018-06-13T06:52:25.445Z,27.72
2018-06-13T06:54:56.602Z,27.62
2018-06-13T06:57:27.045Z,28.10
2018-06-13T06:59:57.573Z,28.13
2018-06-13T07:02:28.397Z,28.42
2018-06-13T07:04:59.258Z,27.53
2018-06-13T07:07:35.043Z,28.67
2018-06-13T07:10:08.217Z,28.25
2018-06-13T07:12:40.902Z,28.78
2018-06-13T07:15:11.943Z,28.80
2018-06-13T07:17:43.477Z,29.08
2018-06-13T07:20:17.926Z,28.80
2018-06-13T07:22:49.151Z,29.07
2018-06-13T07:25:20.230Z,29.30
2018-06-13T07:27:51.280Z,28.34
2018-06-13T07:33:17.096Z,28.77
2018-06-13T07:35:47.689Z,28.97
2018-06-13T07:38:21.669Z,29.73
2018-06-13T07:40:52.633Z,29.59
2018-06-13T07:43:23.075Z,29.49
2018-06-13T07:45:53.544Z,29.62
2018-06-13T07:48:23.976Z,29.94
2018-06-13T07:50:58.191Z,29.81
2018-06-13T07:53:28.583Z,30.25
2018-06-13T07:55:59.276Z,30.31
2018-06-13T07:58:29.853Z,30.61
2018-06-13T08:01:03.247Z,30.41
2018-06-13T08:03:33.772Z,30.35
2018-06-13T08:06:04.189Z,30.12
2018-06-13T08:08:35.047Z,30.24
2018-06-13T08:11:05.505Z,31.15
2018-06-13T08:13:35.926Z,30.96
2018-06-13T08:16:06.294Z,30.86
2018-06-13T08:18:38.272Z,30.62
2018-06-13T08:21:10.298Z,30.58
2018-06-13T08:29:20.410Z,30.85
2018-06-13T08:34:54.235Z,31.60
2018-06-13T08:37:26.715Z,31.49
2018-06-13T08:40:14.073Z,31.99
2018-06-13T08:42:46.617Z,31.69
2018-06-13T08:49:08.029Z,31.94
2018-06-13T08:51:41.931Z,32.16
2018-06-13T08:54:16.512Z,31.42
2018-06-13T08:56:51.802Z,31.96
2018-06-13T08:59:23.779Z,31.88
2018-06-13T09:01:54.698Z,32.26
2018-06-13T09:04:25.709Z,31.68
2018-06-13T09:06:56.855Z,31.65
2018-06-13T09:09:27.642Z,31.71
2018-06-13T09:11:58.889Z,32.61
2018-06-13T09:14:29.814Z,32.22
2018-06-13T09:17:01.979Z,32.23
2018-06-13T09:19:33.283Z,32.01
2018-06-13T09:22:04.193Z,32.81
2018-06-13T09:24:35.142Z,31.87
2018-06-13T09:27:06.178Z,32.56
2018-06-13T09:29:37.313Z,32.41
2018-06-13T09:32:09.115Z,32.57
2018-06-13T09:34:40.053Z,32.51
2018-06-13T09:37:11.094Z,32.51
2018-06-13T09:39:42.012Z,32.38
2018-06-13T09:42:13.120Z,32.32
2018-06-13T09:44:44.010Z,32.00
2018-06-13T09:47:15.137Z,32.31
2018-06-13T09:49:46.091Z,32.28
2018-06-13T09:52:17.429Z,31.74
2018-06-13T09:54:48.702Z,31.98
2018-06-13T09:57:20.051Z,32.23
2018-06-13T09:59:53.730Z,31.89
2018-06-13T10:02:24.778Z,32.06
2018-06-13T10:04:58.080Z,31.60
2018-06-13T10:07:30.863Z,31.12
2018-06-13T10:10:04.746Z,30.88
2018-06-13T10:12:35.798Z,31.11
2018-06-13T10:15:06.574Z,30.83
2018-06-13T10:17:37.463Z,30.76
2018-06-13T10:20:09.241Z,30.85
2018-06-13T10:22:40.902Z,30.79
2018-06-13T10:25:11.972Z,30.47
2018-06-13T10:27:43.216Z,30.57
2018-06-13T10:30:14.725Z,30.57
2018-06-13T10:32:45.032Z,30.49
2018-06-13T10:35:15.379Z,30.58
2018-06-13T10:37:45.752Z,30.07
2018-06-13T10:40:21.294Z,30.46
2018-06-13T10:42:52.848Z,30.12
2018-06-13T10:45:23.475Z,30.18
2018-06-13T10:47:53.934Z,30.10
2018-06-13T10:50:25.423Z,30.39
2018-06-13T10:52:55.676Z,30.62
2018-06-13T10:55:26.215Z,29.22
2018-06-13T10:57:56.676Z,29.53
2018-06-13T11:00:28.226Z,29.53
2018-06-13T11:05:50.618Z,28.98
2018-06-13T11:08:28.277Z,28.82
2018-06-13T11:10:58.696Z,29.22
2018-06-13T11:13:29.270Z,28.94
2018-06-13T11:15:59.673Z,28.93
2018-06-13T11:18:32.005Z,29.13
2018-06-13T11:21:03.377Z,29.10
2018-06-13T11:23:33.773Z,28.94
2018-06-13T11:26:04.333Z,29.24
2018-06-13T11:28:35.448Z,28.76
2018-06-13T11:31:07.785Z,28.61
2018-06-13T11:33:38.426Z,28.75
2018-06-13T11:36:08.887Z,28.92
2018-06-13T11:38:39.260Z,29.03
2018-06-13T11:41:09.700Z,29.37
2018-06-13T11:43:40.107Z,29.33
2018-06-13T11:46:11.105Z,29.69
2018-06-13T11:48:41.713Z,28.97
2018-06-13T11:51:13.450Z,29.09
2018-06-13T11:53:43.799Z,28.92
2018-06-13T11:56:16.685Z,29.11
2018-06-13T11:58:56.274Z,28.70
2018-06-13T12:01:27.753Z,28.81
2018-06-13T12:03:58.155Z,28.63
2018-06-13T12:06:28.477Z,28.49
2018-06-13T12:08:58.616Z,28.35
2018-06-13T12:11:30.012Z,28.07
2018-06-13T12:14:00.270Z,28.18
2018-06-13T12:16:30.723Z,28.50
2018-06-13T12:19:01.017Z,28.43
2018-06-13T12:21:31.566Z,28.23
2018-06-13T12:24:01.823Z,28.44
2018-06-13T12:26:32.001Z,28.34
2018-06-13T12:29:02.273Z,28.20
2018-06-13T12:31:32.613Z,28.24
2018-06-13T12:34:03.119Z,27.86
2018-06-13T12:36:33.478Z,28.00
2018-06-13T12:39:03.502Z,28.04
2018-06-13T12:41:37.189Z,27.78
2018-06-13T12:44:07.601Z,27.99
2018-06-13T12:46:37.900Z,28.42
2018-06-13T12:49:08.269Z,28.10
2018-06-13T12:51:41.959Z,27.78
2018-06-13T12:54:12.369Z,28.19
2018-06-13T12:56:42.817Z,28.13
2018-06-13T12:59:13.724Z,27.97
2018-06-13T13:01:44.109Z,27.83
2018-06-13T13:04:14.445Z,27.98
2018-06-13T13:06:44.809Z,27.94
2018-06-13T13:09:15.272Z,28.18
2018-06-13T13:11:45.677Z,28.01
2018-06-13T13:14:16.010Z,27.93
2018-06-13T13:16:46.381Z,28.03
2018-06-13T13:19:16.813Z,28.21
2018-06-13T13:21:47.191Z,27.75
2018-06-13T13:24:17.656Z,27.81
2018-06-13T13:26:48.072Z,27.28
2018-06-13T13:29:21.537Z,27.10
2018-06-13T13:31:51.761Z,26.95
2018-06-13T13:34:22.010Z,26.95
2018-06-13T13:36:52.192Z,26.73
2018-06-13T13:39:22.787Z,27.13
2018-06-13T13:41:53.028Z,26.61
2018-06-13T13:44:23.307Z,26.91
2018-06-13T13:46:53.629Z,26.95
2018-06-13T13:49:27.295Z,27.03
2018-06-13T13:51:57.610Z,26.77
2018-06-13T13:54:27.859Z,26.47
2018-06-13T13:56:59.296Z,26.41
2018-06-13T13:59:29.609Z,26.55
2018-06-13T14:01:59.983Z,26.43
2018-06-13T14:04:30.249Z,26.67
2018-06-13T14:07:00.709Z,26.46
2018-06-13T14:09:34.378Z,26.59
2018-06-13T14:12:04.710Z,26.56
2018-06-13T14:14:35.621Z,26.66
2018-06-13T14:17:05.986Z,26.72
2018-06-13T14:19:40.908Z,26.49
2018-06-13T14:22:11.222Z,26.75
2018-06-13T14:24:41.696Z,26.68
2018-06-13T14:27:12.782Z,26.71
2018-06-13T14:29:46.902Z,26.57
2018-06-13T14:32:17.370Z,26.68
2018-06-13T14:34:47.739Z,26.64
2018-06-13T14:37:18.279Z,26.66
2018-06-13T14:39:50.446Z,26.94
2018-06-13T14:42:20.875Z,26.88
2018-06-13T14:44:51.195Z,26.18
2018-06-13T14:47:21.526Z,26.30
2018-06-13T14:49:51.936Z,26.26
2018-06-13T14:52:22.221Z,26.04
2018-06-13T14:54:52.699Z,26.35
2018-06-13T14:57:23.144Z,26.09
2018-06-13T14:59:54.557Z,26.06
2018-06-13T15:02:24.941Z,26.22
2018-06-13T15:04:55.159Z,26.13
2018-06-13T15:07:25.640Z,26.02
2018-06-13T15:09:55.956Z,25.67
2018-06-13T15:12:26.327Z,25.76
2018-06-13T15:14:56.761Z,25.53
2018-06-13T15:17:27.309Z,25.53
2018-06-13T15:20:01.138Z,25.72
2018-06-13T15:22:31.617Z,25.66
2018-06-13T15:25:02.080Z,25.54
2018-06-13T15:27:32.395Z,25.38
2018-06-13T15:30:03.589Z,25.46
2018-06-13T15:32:33.933Z,25.30
2018-06-13T15:35:04.402Z,25.24
2018-06-13T15:37:34.736Z,25.35
2018-06-13T15:40:08.258Z,25.40
2018-06-13T15:42:38.779Z,25.16
2018-06-13T15:45:08.935Z,24.99
2018-06-13T15:47:39.172Z,25.12
2018-06-13T15:50:10.743Z,24.86
2018-06-13T15:52:41.166Z,24.91
2018-06-13T15:55:11.564Z,24.96
2018-06-13T15:57:42.005Z,25.17
2018-06-13T16:00:13.429Z,24.98
2018-06-13T16:02:43.808Z,24.92
2018-06-13T16:05:14.322Z,24.91
2018-06-13T16:07:44.592Z,24.82
2018-06-13T16:10:16.050Z,24.78
2018-06-13T16:12:46.339Z,24.78
2018-06-13T16:15:16.781Z,24.70
2018-06-13T16:17:47.137Z,24.54
2018-06-13T16:20:20.537Z,24.37
2018-06-13T16:22:50.933Z,24.57
2018-06-13T16:25:21.102Z,24.53
2018-06-13T16:27:51.543Z,24.38
2018-06-13T16:30:22.775Z,24.55
2018-06-13T16:32:53.009Z,24.53
2018-06-13T16:35:23.524Z,24.55
2018-06-13T16:37:53.893Z,24.44
2018-06-13T16:40:27.625Z,24.44
2018-06-13T16:42:58.156Z,24.38
2018-06-13T16:45:28.407Z,24.39
2018-06-13T16:47:58.629Z,24.33
2018-06-13T16:50:45.103Z,24.32
2018-06-13T16:53:14.799Z,24.28
2018-06-13T16:55:45.162Z,24.18
2018-06-13T16:58:15.506Z,24.32
2018-06-13T17:00:47.144Z,24.07
2018-06-13T17:03:17.566Z,24.11
2018-06-13T17:05:47.869Z,24.06
2018-06-13T17:08:18.165Z,24.07
2018-06-13T17:10:49.740Z,24.08
2018-06-13T17:13:20.251Z,24.04
2018-06-13T17:15:50.685Z,23.91
2018-06-13T17:18:21.201Z,23.98
2018-06-13T17:20:54.611Z,23.89
2018-06-13T17:23:24.897Z,23.97
2018-06-13T17:25:55.858Z,23.95
2018-06-13T17:28:26.262Z,24.07
2018-06-13T17:30:59.873Z,23.96
2018-06-13T17:33:31.104Z,24.03
2018-06-13T17:36:01.324Z,23.84
2018-06-13T17:38:31.658Z,23.67
2018-06-13T17:41:02.093Z,23.67
2018-06-13T17:43:32.355Z,23.71
2018-06-13T17:46:02.901Z,23.47
2018-06-13T17:48:33.322Z,23.38
2018-06-13T17:51:03.658Z,23.32
2018-06-13T17:53:34.933Z,23.17
2018-06-13T17:56:05.182Z,23.14
2018-06-13T17:58:35.436Z,23.11
2018-06-13T18:01:05.873Z,23.22
2018-06-13T18:03:36.378Z,23.14
2018-06-13T18:06:06.795Z,23.32
2018-06-13T18:08:37.322Z,23.31
2018-06-13T18:11:07.663Z,23.07
2018-06-13T18:13:38.066Z,23.13
2018-06-13T18:16:08.481Z,22.84
2018-06-13T18:18:39.774Z,23.00
2018-06-13T18:21:10.101Z,23.06
2018-06-13T18:23:40.390Z,23.08
2018-06-13T18:26:10.713Z,23.12
2018-06-13T18:28:41.128Z,23.15
2018-06-13T18:31:11.434Z,23.16
2018-06-13T18:33:43.930Z,23.21
2018-06-13T18:36:15.661Z,23.29
2018-06-13T18:38:49.682Z,23.48
2018-06-13T18:41:19.933Z,23.08
2018-06-13T18:43:51.032Z,23.77
2018-06-13T18:46:21.483Z,23.38
2018-06-13T18:48:54.803Z,23.56
2018-06-13T18:51:25.813Z,23.65
2018-06-13T18:53:56.105Z,23.56
2018-06-13T18:56:27.105Z,23.14
2018-06-13T18:59:00.788Z,23.15
2018-06-13T19:01:31.816Z,22.89
2018-06-13T19:04:02.659Z,22.39
2018-06-13T19:06:32.946Z,22.37
2018-06-13T19:09:03.294Z,22.82
2018-06-13T19:11:33.818Z,23.07
2018-06-13T19:17:07.084Z,22.84
2018-06-13T19:19:39.127Z,23.01
2018-06-13T19:22:10.510Z,23.12
2018-06-13T19:24:45.322Z,22.84
2018-06-13T19:27:16.472Z,22.34
2018-06-13T19:29:51.194Z,22.12
2018-06-13T19:32:21.499Z,21.92
2018-06-13T19:34:51.820Z,21.86
2018-06-13T19:37:22.317Z,21.83
2018-06-13T19:39:53.707Z,21.75
2018-06-13T19:42:24.088Z,21.64
2018-06-13T19:44:54.432Z,21.74
2018-06-13T19:47:24.674Z,21.66
2018-06-13T19:49:55.041Z,21.35
2018-06-13T19:52:25.319Z,21.01
2018-06-13T19:55:00.988Z,21.04
2018-06-13T19:57:31.468Z,21.57
2018-06-13T20:00:05.758Z,21.62
2018-06-13T20:02:36.074Z,21.43
2018-06-13T20:07:58.765Z,21.18
2018-06-13T20:10:29.320Z,21.08
2018-06-13T20:15:56.609Z,21.09
2018-06-13T20:21:20.801Z,21.14
2018-06-13T20:23:50.995Z,21.03
2018-06-13T20:29:35.013Z,21.42
2018-06-13T20:32:05.055Z,21.39
2018-06-13T20:34:35.249Z,21.39
2018-06-13T20:37:05.711Z,21.51
2018-06-13T20:39:36.271Z,21.40
2018-06-13T20:42:06.722Z,21.15
2018-06-13T20:44:36.857Z,21.06
2018-06-13T20:47:06.914Z,21.06
2018-06-13T20:49:40.690Z,21.16
2018-06-13T20:52:10.946Z,21.22
2018-06-13T20:54:41.865Z,21.21
2018-06-13T20:57:12.232Z,21.12
2018-06-13T20:59:43.588Z,21.10
2018-06-13T21:02:13.717Z,21.07
2018-06-13T21:04:44.153Z,21.08
2018-06-13T21:07:14.534Z,21.02
2018-06-13T21:09:45.918Z,21.28
2018-06-13T21:12:16.204Z,21.39
2018-06-13T21:14:46.811Z,21.17
2018-06-13T21:17:17.306Z,21.26
2018-06-13T21:19:48.884Z,21.39
2018-06-13T21:22:19.318Z,21.40
2018-06-13T21:24:49.612Z,21.35
2018-06-13T21:27:19.829Z,21.39
2018-06-13T21:29:53.084Z,21.41
2018-06-13T21:32:23.398Z,21.27
2018-06-13T21:34:53.905Z,21.08
2018-06-13T21:37:24.216Z,21.19
2018-06-13T21:39:54.784Z,21.15
2018-06-13T21:42:25.222Z,21.16
2018-06-13T21:44:55.838Z,21.30
2018-06-13T21:47:26.303Z,21.23
2018-06-13T21:49:56.740Z,21.24
2018-06-13T21:52:27.164Z,21.18
2018-06-13T21:54:57.681Z,21.12
2018-06-13T21:57:27.986Z,21.06
2018-06-13T21:59:58.553Z,21.11
2018-06-13T22:02:28.905Z,21.04
2018-06-13T22:04:59.389Z,21.05
2018-06-13T22:07:29.879Z,20.81
2018-06-13T22:10:00.319Z,20.99
2018-06-13T22:12:30.638Z,20.80
2018-06-13T22:15:00.905Z,20.94
2018-06-13T22:17:31.357Z,21.03
2018-06-13T22:20:01.848Z,21.03
2018-06-13T22:22:32.336Z,20.89
2018-06-13T22:25:02.721Z,21.05
2018-06-13T22:27:33.109Z,20.90
2018-06-13T22:30:04.019Z,20.94
2018-06-13T22:32:34.601Z,20.85
2018-06-13T22:35:04.894Z,20.85
2018-06-13T22:37:35.471Z,20.86
2018-06-13T22:40:05.757Z,20.83
2018-06-13T22:42:36.180Z,20.76
2018-06-13T22:45:06.473Z,20.73
2018-06-13T22:47:36.840Z,20.42
2018-06-13T22:50:08.089Z,20.30
2018-06-13T22:52:38.425Z,20.62
2018-06-13T22:55:08.904Z,20.27
2018-06-13T22:57:39.192Z,20.26
2018-06-13T23:00:11.790Z,20.38
2018-06-13T23:02:41.922Z,20.68
2018-06-13T23:05:12.275Z,20.48
2018-06-13T23:07:42.755Z,20.60
2018-06-13T23:10:13.117Z,20.42
2018-06-13T23:12:43.409Z,20.30
2018-06-13T23:15:14.295Z,20.47
2018-06-13T23:17:44.621Z,20.52
2018-06-13T23:20:15.145Z,20.68
2018-06-13T23:22:45.628Z,20.65
2018-06-13T23:25:16.111Z,20.64
2018-06-13T23:27:46.361Z,20.45
2018-06-13T23:30:16.818Z,20.25
2018-06-13T23:32:47.204Z,20.36
2018-06-13T23:35:17.514Z,20.39
2018-06-13T23:37:47.790Z,20.41
2018-06-13T23:40:18.213Z,20.41
2018-06-13T23:42:48.523Z,20.52
2018-06-13T23:45:18.970Z,20.43
2018-06-13T23:47:50.361Z,20.34
2018-06-13T23:50:20.817Z,20.35
2018-06-13T23:52:51.356Z,20.36
2018-06-13T23:55:21.560Z,20.27
2018-06-13T23:57:52.966Z,20.41
